EmailTwitter


Observations de surface / Québec / CYHU (71371)

Régions: Québec | Canada | États-Unis | Europe | France | UK | Ailleurs
Station
Affichage
Infos & localisation pour CYHU (71371) | Aide pour décoder les METARs

Observations prises le 2020-10-29 à 14H00 UTC à MONTREAL/ST HUBE, QB (CYHU)

Etat du ciel: couvert.

Température: 7.0 Celsius

Point de rosée: 1.0 Celsius

Humidité relative: 66%

Vents: Calme à 0 km/h ou 0 noeuds.

Pression au niveau moyen de la mer: 101.35 kilopascals.

Calage altimétrique: 101.32 kilopascals ou 29.92 pouces de mercure.

Visibilité horizontale: 9.00 milles terrestres ou 14.40 kilomètres.

Hauteur du plafond: 3048 mètres ( 10000 pieds ).

Observation METAR:

CYHU 291400Z AUTO 00000KT 9SM OVC100 07/01 A2992 RMK SLP135=